Time;durP1;ratioP1;P1;durP2;ratioP2;P2;SDS_P1;SDS_P2;PMS_P1;PMS_P2;Temp;Humidity;BMP_temperature;BMP_pressure;BME280_temperature;BME280_humidity;BME280_pressure;Samples;Min_cycle;Max_cycle;Signal;HPM_P1;HPM_P2
2022/04/07 00:01:48;;;;;;;;;;;10.10;99.90;;;;;;5094145;28;19908;-44
2022/04/07 00:04:14;;;;;;;;;;;10.10;99.90;;;;;;5095189;28;20349;-43
2022/04/07 00:06:39;;;;;;;;;;;10.10;99.90;;;;;;5094966;28;19908;-44
2022/04/07 00:09:06;;;;;;;;;;;10.20;99.90;;;;;;5094428;28;19912;-46
2022/04/07 00:11:31;;;;;;;;;;;10.20;99.90;;;;;;5094898;28;19916;-42
2022/04/07 00:13:57;;;;;;;;;;;10.20;99.90;;;;;;5094969;28;19908;-43
2022/04/07 00:16:22;;;;;;;;;;;10.20;99.90;;;;;;5094070;28;19908;-43
2022/04/07 00:18:47;;;;;;;;;;;10.20;99.90;;;;;;5094929;28;19916;-44
2022/04/07 00:21:24;;;;;;;;;;;10.10;99.90;;;;;;5094873;28;20301;-44
2022/04/07 00:23:53;;;;;;;;;;;10.00;99.90;;;;;;5094042;28;19992;-45
2022/04/07 00:26:18;;;;;;;;;;;10.00;99.90;;;;;;5094952;28;20015;-44
2022/04/07 00:28:44;;;;;;;;;;;9.90;99.90;;;;;;5094783;28;19951;-45
2022/04/07 00:31:11;;;;;;;;;;;9.90;99.90;;;;;;5093667;28;19916;-44
2022/04/07 00:33:37;;;;;;;;;;;9.90;99.90;;;;;;5094589;28;19912;-44
2022/04/07 00:36:04;;;;;;;;;;;9.80;99.90;;;;;;5094435;28;19949;-45
2022/04/07 00:38:30;;;;;;;;;;;9.80;99.90;;;;;;5093987;28;19994;-44
2022/04/07 00:40:55;;;;;;;;;;;9.80;99.90;;;;;;5094514;28;19999;-44
2022/04/07 00:43:31;;;;;;;;;;;9.80;99.90;;;;;;5092669;28;20491;-44
2022/04/07 00:45:57;;;;;;;;;;;9.70;99.90;;;;;;5094300;28;20375;-45
2022/04/07 00:48:22;;;;;;;;;;;9.70;99.90;;;;;;5094277;28;19916;-43
2022/04/07 00:50:48;;;;;;;;;;;9.70;99.90;;;;;;5093358;28;19920;-44
2022/04/07 00:53:13;;;;;;;;;;;9.70;99.90;;;;;;5094137;28;20367;-46
2022/04/07 00:55:39;;;;;;;;;;;9.70;99.90;;;;;;5094310;28;19908;-44
2022/04/07 00:58:05;;;;;;;;;;;9.80;99.90;;;;;;5093675;28;20382;-44
2022/04/07 01:00:31;;;;;;;;;;;9.70;99.90;;;;;;5094064;28;19973;-44
2022/04/07 01:02:57;;;;;;;;;;;9.80;99.90;;;;;;5094103;28;19914;-44
2022/04/07 01:05:23;;;;;;;;;;;9.80;99.90;;;;;;5093190;28;20382;-46
2022/04/07 01:07:49;;;;;;;;;;;9.80;99.90;;;;;;5093835;28;19912;-43
2022/04/07 01:10:15;;;;;;;;;;;9.80;99.90;;;;;;5093809;28;19915;-44
2022/04/07 01:12:40;;;;;;;;;;;9.80;99.90;;;;;;5093214;28;20256;-45
2022/04/07 01:15:07;;;;;;;;;;;9.70;99.90;;;;;;5093795;28;19914;-44
2022/04/07 01:17:34;;;;;;;;;;;9.70;99.90;;;;;;5093738;28;19908;-44
2022/04/07 01:20:00;;;;;;;;;;;9.70;99.90;;;;;;5092550;28;19908;-45
2022/04/07 01:22:26;;;;;;;;;;;9.70;99.90;;;;;;5093626;28;19912;-46
2022/04/07 01:24:51;;;;;;;;;;;9.60;99.90;;;;;;5093764;28;19954;-45
2022/04/07 01:27:17;;;;;;;;;;;9.60;99.90;;;;;;5092853;28;19908;-46
2022/04/07 01:29:43;;;;;;;;;;;9.60;99.90;;;;;;5093134;28;19912;-44
2022/04/07 01:32:16;;;;;;;;;;;9.60;99.90;;;;;;5093288;28;20057;-48
2022/04/07 01:34:42;;;;;;;;;;;9.60;99.90;;;;;;5092433;28;19916;-44
2022/04/07 01:37:08;;;;;;;;;;;9.60;99.90;;;;;;5093417;28;19998;-44
2022/04/07 01:39:35;;;;;;;;;;;9.60;99.90;;;;;;5092677;28;19967;-44
2022/04/07 01:42:00;;;;;;;;;;;9.60;99.90;;;;;;5093452;28;19915;-44
2022/04/07 01:44:26;;;;;;;;;;;9.60;99.90;;;;;;5093257;28;19908;-45
2022/04/07 01:46:51;;;;;;;;;;;9.60;99.90;;;;;;5092622;28;20390;-45
2022/04/07 01:49:18;;;;;;;;;;;9.60;99.90;;;;;;5093168;28;19907;-45
2022/04/07 01:51:44;;;;;;;;;;;9.60;99.90;;;;;;5092799;28;19970;-45
2022/04/07 01:54:11;;;;;;;;;;;9.60;99.90;;;;;;5092111;28;19916;-44
2022/04/07 01:56:40;;;;;;;;;;;9.60;99.90;;;;;;5093155;28;19908;-44
2022/04/07 01:59:08;;;;;;;;;;;9.60;99.90;;;;;;5092971;28;19908;-43
2022/04/07 02:01:34;;;;;;;;;;;9.60;99.90;;;;;;5092355;28;19995;-45
2022/04/07 02:03:59;;;;;;;;;;;9.60;99.90;;;;;;5092549;28;19966;-47
2022/04/07 02:06:25;;;;;;;;;;;9.60;99.90;;;;;;5092973;28;19908;-45
2022/04/07 02:08:51;;;;;;;;;;;9.60;99.90;;;;;;5092167;28;20382;-46
2022/04/07 02:11:16;;;;;;;;;;;9.60;99.90;;;;;;5092744;28;19916;-44
2022/04/07 02:13:42;;;;;;;;;;;9.60;99.90;;;;;;5092959;28;19915;-46
2022/04/07 02:16:08;;;;;;;;;;;9.50;99.90;;;;;;5092113;28;20484;-45
2022/04/07 02:18:34;;;;;;;;;;;9.40;99.90;;;;;;5092790;28;19909;-47
2022/04/07 02:21:00;;;;;;;;;;;9.40;99.90;;;;;;5092499;28;19913;-45
2022/04/07 02:23:26;;;;;;;;;;;9.30;99.90;;;;;;5091963;28;19978;-46
2022/04/07 02:25:52;;;;;;;;;;;9.40;99.90;;;;;;5092795;28;20049;-47
2022/04/07 02:28:18;;;;;;;;;;;9.40;99.90;;;;;;5092462;28;19950;-47
2022/04/07 02:30:44;;;;;;;;;;;9.50;99.90;;;;;;5091772;28;19969;-46
2022/04/07 02:33:09;;;;;;;;;;;9.40;99.90;;;;;;5092555;28;19939;-44
2022/04/07 02:35:35;;;;;;;;;;;9.50;99.90;;;;;;5092532;28;20383;-46
2022/04/07 02:38:00;;;;;;;;;;;9.50;99.90;;;;;;5091970;28;20444;-45
2022/04/07 02:40:26;;;;;;;;;;;9.50;99.90;;;;;;5092644;28;19909;-47
2022/04/07 02:42:51;;;;;;;;;;;9.40;99.90;;;;;;5091816;28;19914;-45
2022/04/07 02:45:17;;;;;;;;;;;9.40;99.90;;;;;;5092634;28;20370;-46
2022/04/07 02:47:42;;;;;;;;;;;9.50;99.90;;;;;;5092552;28;20401;-44
2022/04/07 02:50:08;;;;;;;;;;;9.50;99.90;;;;;;5091314;28;20011;-44
2022/04/07 02:52:34;;;;;;;;;;;9.50;99.90;;;;;;5092653;28;19923;-46
2022/04/07 02:54:59;;;;;;;;;;;9.40;99.90;;;;;;5092552;28;19912;-44
2022/04/07 02:57:25;;;;;;;;;;;9.50;99.90;;;;;;5091704;28;19926;-44
2022/04/07 02:59:51;;;;;;;;;;;9.40;99.90;;;;;;5092540;28;19940;-44
2022/04/07 03:02:16;;;;;;;;;;;9.40;99.90;;;;;;5092382;28;19908;-44
2022/04/07 03:04:42;;;;;;;;;;;9.40;99.90;;;;;;5091982;28;19915;-43
2022/04/07 03:07:07;;;;;;;;;;;9.40;99.90;;;;;;5094692;28;19908;-45
2022/04/07 03:09:33;;;;;;;;;;;9.40;99.90;;;;;;5096289;28;20374;-44
2022/04/07 03:11:58;;;;;;;;;;;9.40;99.90;;;;;;5095092;28;19931;-45
2022/04/07 03:14:27;;;;;;;;;;;9.40;99.90;;;;;;5095636;28;19946;-46
2022/04/07 03:16:52;;;;;;;;;;;9.40;99.90;;;;;;5095986;28;19962;-46
2022/04/07 03:19:18;;;;;;;;;;;9.50;99.90;;;;;;5095192;28;19908;-45
2022/04/07 03:21:44;;;;;;;;;;;9.50;99.90;;;;;;5096034;28;19966;-44
2022/04/07 03:24:09;;;;;;;;;;;9.50;99.90;;;;;;5095980;28;20011;-46
2022/04/07 03:26:35;;;;;;;;;;;9.50;99.90;;;;;;5095276;28;20003;-47
2022/04/07 03:29:00;;;;;;;;;;;9.50;99.90;;;;;;5095905;28;19914;-44
2022/04/07 03:31:26;;;;;;;;;;;9.50;99.90;;;;;;5094822;28;19920;-45
2022/04/07 03:33:51;;;;;;;;;;;9.40;99.90;;;;;;5094995;28;19908;-46
2022/04/07 03:36:17;;;;;;;;;;;9.40;99.90;;;;;;5095480;28;19974;-46
2022/04/07 03:38:43;;;;;;;;;;;9.40;99.90;;;;;;5095693;28;20385;-44
2022/04/07 03:41:08;;;;;;;;;;;9.30;99.90;;;;;;5094872;28;20402;-45
2022/04/07 03:43:34;;;;;;;;;;;9.30;99.90;;;;;;5095651;28;19915;-45
2022/04/07 03:45:59;;;;;;;;;;;9.30;99.90;;;;;;5094827;28;19915;-47
2022/04/07 03:48:25;;;;;;;;;;;9.30;99.90;;;;;;5095303;28;20271;-44
2022/04/07 03:50:50;;;;;;;;;;;9.30;99.90;;;;;;5095471;28;20337;-44
2022/04/07 03:53:16;;;;;;;;;;;9.20;99.90;;;;;;5094654;28;20297;-44
2022/04/07 03:55:41;;;;;;;;;;;9.20;99.90;;;;;;5095379;28;19915;-46
2022/04/07 03:58:07;;;;;;;;;;;9.10;99.90;;;;;;5095361;28;19908;-45
2022/04/07 04:00:32;;;;;;;;;;;9.10;99.90;;;;;;5093887;28;19935;-45
2022/04/07 04:02:58;;;;;;;;;;;9.10;99.90;;;;;;5095230;28;20002;-45
2022/04/07 04:05:23;;;;;;;;;;;9.10;99.90;;;;;;5095076;28;19909;-45
2022/04/07 04:07:49;;;;;;;;;;;9.20;99.90;;;;;;5094253;28;19908;-44
2022/04/07 04:10:14;;;;;;;;;;;9.20;99.90;;;;;;5094895;28;19946;-45
2022/04/07 04:12:40;;;;;;;;;;;9.20;99.90;;;;;;5095071;28;19912;-44
2022/04/07 04:15:05;;;;;;;;;;;9.20;99.90;;;;;;5093998;28;19916;-45
2022/04/07 04:17:32;;;;;;;;;;;9.30;99.90;;;;;;5094896;28;20001;-44
2022/04/07 04:19:57;;;;;;;;;;;9.30;99.90;;;;;;5094450;28;19912;-44
2022/04/07 04:22:23;;;;;;;;;;;9.30;99.90;;;;;;5094063;28;19912;-45
2022/04/07 04:24:48;;;;;;;;;;;9.40;99.90;;;;;;5094837;28;19919;-44
2022/04/07 04:27:14;;;;;;;;;;;9.40;99.90;;;;;;5094733;28;19948;-44
2022/04/07 04:29:40;;;;;;;;;;;9.40;99.90;;;;;;5094039;28;19999;-44
2022/04/07 04:32:06;;;;;;;;;;;9.30;99.90;;;;;;5094585;28;19932;-46
2022/04/07 04:34:31;;;;;;;;;;;9.30;99.90;;;;;;5094567;28;19923;-44
2022/04/07 04:36:57;;;;;;;;;;;9.30;99.90;;;;;;5093615;28;19927;-44
2022/04/07 04:39:24;;;;;;;;;;;9.30;99.90;;;;;;5094536;28;19908;-45
2022/04/07 04:41:49;;;;;;;;;;;9.30;99.90;;;;;;5094646;28;20073;-45
2022/04/07 04:44:15;;;;;;;;;;;9.30;99.90;;;;;;5093634;28;19908;-45
2022/04/07 04:46:40;;;;;;;;;;;9.30;99.90;;;;;;5094453;28;20432;-45
2022/04/07 04:49:06;;;;;;;;;;;9.30;99.90;;;;;;5094354;28;19961;-45
2022/04/07 04:51:31;;;;;;;;;;;9.30;99.90;;;;;;5093087;28;19920;-45
2022/04/07 04:53:57;;;;;;;;;;;9.30;99.90;;;;;;5094218;28;19962;-45
2022/04/07 04:56:22;;;;;;;;;;;9.30;99.90;;;;;;5093080;28;19915;-44
2022/04/07 04:58:48;;;;;;;;;;;9.30;99.90;;;;;;5093802;28;20397;-46
2022/04/07 05:01:13;;;;;;;;;;;9.30;99.90;;;;;;5094018;28;19915;-45
2022/04/07 05:03:39;;;;;;;;;;;9.30;99.90;;;;;;5093306;28;19916;-44
2022/04/07 05:06:04;;;;;;;;;;;9.30;99.90;;;;;;5093962;28;19915;-44
2022/04/07 05:08:29;;;;;;;;;;;9.20;99.90;;;;;;5093979;28;19908;-48
2022/04/07 05:10:55;;;;;;;;;;;9.20;99.90;;;;;;5092769;28;19955;-48
2022/04/07 05:13:23;;;;;;;;;;;9.20;99.90;;;;;;5093841;28;19917;-49
2022/04/07 05:15:49;;;;;;;;;;;9.10;99.90;;;;;;5093774;28;20355;-45
2022/04/07 05:18:14;;;;;;;;;;;9.10;99.90;;;;;;5092957;28;19908;-45
2022/04/07 05:20:40;;;;;;;;;;;9.10;99.90;;;;;;5093815;28;19915;-46
2022/04/07 05:23:05;;;;;;;;;;;9.10;99.90;;;;;;5093959;28;19998;-46
2022/04/07 05:25:30;;;;;;;;;;;9.10;99.90;;;;;;5093159;28;19981;-46
2022/04/07 05:27:56;;;;;;;;;;;9.10;99.90;;;;;;5093591;28;19915;-46
2022/04/07 05:30:21;;;;;;;;;;;9.10;99.90;;;;;;5092944;28;19947;-44
2022/04/07 05:32:47;;;;;;;;;;;9.00;99.90;;;;;;5092720;28;19913;-45
2022/04/07 05:35:13;;;;;;;;;;;9.10;99.90;;;;;;5093150;28;19970;-46
2022/04/07 05:37:39;;;;;;;;;;;9.00;99.90;;;;;;5093453;28;19915;-48
2022/04/07 05:40:05;;;;;;;;;;;9.10;99.90;;;;;;5091598;28;19915;-45
2022/04/07 05:42:31;;;;;;;;;;;9.00;99.90;;;;;;5092941;28;19919;-47
2022/04/07 05:44:56;;;;;;;;;;;9.10;99.90;;;;;;5093231;28;20356;-50
2022/04/07 05:47:22;;;;;;;;;;;9.10;99.90;;;;;;5092328;28;19916;-46
2022/04/07 05:49:47;;;;;;;;;;;9.10;99.90;;;;;;5093303;28;19908;-47
2022/04/07 05:52:13;;;;;;;;;;;9.10;99.90;;;;;;5093135;28;19959;-45
2022/04/07 05:54:39;;;;;;;;;;;9.10;99.90;;;;;;5092424;28;19908;-47
2022/04/07 05:57:04;;;;;;;;;;;9.10;99.90;;;;;;5091871;28;19919;-47
2022/04/07 05:59:30;;;;;;;;;;;9.10;99.90;;;;;;5105101;28;19912;-48
2022/04/07 06:01:55;;;;;;;;;;;9.10;99.90;;;;;;5112068;28;20354;-48
2022/04/07 06:04:20;;;;;;;;;;;9.10;99.90;;;;;;5092635;28;20275;-45
2022/04/07 06:06:46;;;;;;;;;;;9.10;99.90;;;;;;5091528;28;19908;-46
2022/04/07 06:09:11;;;;;;;;;;;8.90;99.90;;;;;;5091497;28;20006;-45
2022/04/07 06:11:37;;;;;;;;;;;7.70;99.90;;;;;;5091697;28;19920;-48
2022/04/07 06:14:03;;;;;;;;;;;6.80;99.90;;;;;;5091090;28;19912;-44
2022/04/07 06:16:28;;;;;;;;;;;6.30;99.90;;;;;;5092042;28;20013;-46
2022/04/07 06:18:54;;;;;;;;;;;6.00;99.90;;;;;;5092200;28;19915;-45
2022/04/07 06:21:20;;;;;;;;;;;5.90;99.90;;;;;;5090999;28;20014;-46
2022/04/07 06:23:46;;;;;;;;;;;5.80;99.90;;;;;;5092377;28;19919;-48
2022/04/07 06:26:12;;;;;;;;;;;5.80;99.90;;;;;;5092207;28;19934;-47
2022/04/07 06:28:40;;;;;;;;;;;5.80;99.90;;;;;;5091034;28;19970;-48
2022/04/07 06:31:05;;;;;;;;;;;5.80;99.90;;;;;;5091604;28;19982;-46
2022/04/07 06:33:31;;;;;;;;;;;5.70;99.90;;;;;;5109236;28;19916;-47
2022/04/07 06:35:57;;;;;;;;;;;5.70;99.90;;;;;;5107584;28;19920;-47
2022/04/07 06:38:22;;;;;;;;;;;5.70;99.90;;;;;;5091692;28;19908;-46
2022/04/07 06:40:48;;;;;;;;;;;5.70;99.90;;;;;;5092250;28;19915;-47
2022/04/07 06:43:13;;;;;;;;;;;5.70;99.90;;;;;;5095340;28;20385;-46
2022/04/07 06:45:39;;;;;;;;;;;5.70;99.90;;;;;;5095918;28;20367;-48
2022/04/07 06:48:04;;;;;;;;;;;5.60;99.90;;;;;;5099356;28;19976;-47
2022/04/07 06:50:31;;;;;;;;;;;5.60;99.90;;;;;;5115404;28;19909;-46
2022/04/07 06:52:57;;;;;;;;;;;5.60;99.90;;;;;;5116397;28;20017;-46
2022/04/07 06:55:23;;;;;;;;;;;5.60;99.90;;;;;;5115937;28;20354;-45
2022/04/07 06:57:51;;;;;;;;;;;5.60;99.90;;;;;;5115469;28;19954;-48
2022/04/07 07:00:18;;;;;;;;;;;5.70;99.90;;;;;;5115920;28;19914;-49
2022/04/07 07:02:47;;;;;;;;;;;5.70;99.90;;;;;;5116314;28;19915;-47
2022/04/07 07:05:12;;;;;;;;;;;5.70;99.90;;;;;;5115389;28;19950;-47
2022/04/07 07:07:38;;;;;;;;;;;5.70;99.90;;;;;;5115953;28;19952;-47
2022/04/07 07:10:04;;;;;;;;;;;5.70;99.90;;;;;;5115275;28;19918;-44
2022/04/07 07:12:29;;;;;;;;;;;5.70;99.90;;;;;;5115909;28;19926;-45
2022/04/07 07:14:55;;;;;;;;;;;5.70;99.90;;;;;;5116058;28;19907;-46
2022/04/07 07:17:20;;;;;;;;;;;5.70;99.90;;;;;;5100726;28;19916;-45
2022/04/07 07:19:45;;;;;;;;;;;5.70;99.90;;;;;;5095568;28;19912;-46
2022/04/07 07:22:11;;;;;;;;;;;5.70;99.90;;;;;;5095428;28;20370;-46
2022/04/07 07:24:36;;;;;;;;;;;5.60;99.90;;;;;;5094165;28;19916;-46
2022/04/07 07:27:02;;;;;;;;;;;5.60;99.90;;;;;;5095396;28;19912;-47
2022/04/07 07:29:29;;;;;;;;;;;5.60;99.90;;;;;;5094849;28;19923;-46
2022/04/07 07:31:54;;;;;;;;;;;5.60;99.90;;;;;;5094234;28;19970;-45
2022/04/07 07:34:20;;;;;;;;;;;5.60;99.90;;;;;;5094991;28;19943;-46
2022/04/07 07:36:46;;;;;;;;;;;5.70;99.90;;;;;;5094984;28;20379;-45
2022/04/07 07:39:11;;;;;;;;;;;5.70;99.90;;;;;;5094585;28;19908;-45
2022/04/07 07:41:38;;;;;;;;;;;5.70;99.90;;;;;;5094249;28;19916;-47
2022/04/07 07:44:06;;;;;;;;;;;5.70;99.90;;;;;;5112347;28;19919;-49
2022/04/07 07:46:33;;;;;;;;;;;5.70;99.90;;;;;;5100309;28;19912;-45
2022/04/07 07:48:59;;;;;;;;;;;5.70;99.90;;;;;;5110119;28;19912;-43
2022/04/07 07:51:24;;;;;;;;;;;5.70;99.90;;;;;;5113384;28;20298;-47
2022/04/07 07:53:50;;;;;;;;;;;5.70;99.90;;;;;;5092715;28;19919;-45
2022/04/07 07:56:15;;;;;;;;;;;5.70;99.90;;;;;;5092999;28;19916;-48
2022/04/07 07:58:41;;;;;;;;;;;5.80;99.90;;;;;;5093432;28;19914;-47
2022/04/07 08:01:06;;;;;;;;;;;5.70;99.90;;;;;;5092443;28;20012;-48
2022/04/07 08:03:31;;;;;;;;;;;5.80;99.90;;;;;;5093148;28;19916;-49
2022/04/07 08:05:57;;;;;;;;;;;5.80;99.90;;;;;;5095247;28;19908;-46
2022/04/07 08:08:22;;;;;;;;;;;5.80;99.90;;;;;;5094263;28;19915;-45
2022/04/07 08:10:49;;;;;;;;;;;5.80;99.90;;;;;;5095044;28;20366;-47
2022/04/07 08:13:14;;;;;;;;;;;5.80;99.90;;;;;;5094661;28;19908;-49
2022/04/07 08:15:40;;;;;;;;;;;5.70;99.90;;;;;;5094918;28;20353;-44
2022/04/07 08:18:06;;;;;;;;;;;5.80;99.90;;;;;;5095005;28;20410;-47
2022/04/07 08:20:32;;;;;;;;;;;5.80;99.90;;;;;;5094182;28;19918;-44
2022/04/07 08:22:57;;;;;;;;;;;5.90;99.90;;;;;;5094227;28;19957;-44
2022/04/07 08:25:22;;;;;;;;;;;5.90;99.90;;;;;;5094867;28;20461;-45
2022/04/07 08:27:48;;;;;;;;;;;5.90;99.90;;;;;;5094132;28;20359;-45
2022/04/07 08:30:13;;;;;;;;;;;5.90;99.90;;;;;;5094425;28;19912;-46
2022/04/07 08:32:39;;;;;;;;;;;5.90;99.90;;;;;;5094709;28;20390;-46
2022/04/07 08:35:05;;;;;;;;;;;6.00;99.90;;;;;;5093739;28;19924;-46
2022/04/07 08:37:31;;;;;;;;;;;6.00;99.90;;;;;;5094571;28;19908;-47
2022/04/07 08:39:56;;;;;;;;;;;6.20;99.90;;;;;;5094544;28;19966;-46
2022/04/07 08:42:23;;;;;;;;;;;6.20;99.90;;;;;;5093688;28;20282;-44
2022/04/07 08:44:48;;;;;;;;;;;6.30;99.90;;;;;;5094583;28;20008;-46
2022/04/07 08:47:20;;;;;;;;;;;6.30;99.90;;;;;;5094347;28;19912;-44
2022/04/07 08:49:47;;;;;;;;;;;6.40;99.90;;;;;;5093641;28;19928;-48
2022/04/07 08:52:13;;;;;;;;;;;6.40;99.90;;;;;;5093832;28;19928;-45
2022/04/07 08:54:38;;;;;;;;;;;6.50;99.90;;;;;;5094324;28;19912;-45
2022/04/07 08:57:03;;;;;;;;;;;6.60;99.90;;;;;;5093503;28;19912;-47
2022/04/07 08:59:29;;;;;;;;;;;6.70;99.90;;;;;;5094144;28;19908;-47
2022/04/07 09:02:02;;;;;;;;;;;6.90;99.90;;;;;;5094204;28;19908;-45
2022/04/07 09:04:31;;;;;;;;;;;7.10;99.90;;;;;;5092373;28;19918;-46
2022/04/07 09:06:57;;;;;;;;;;;7.30;99.90;;;;;;5093950;28;19909;-45
2022/04/07 09:09:23;;;;;;;;;;;7.50;99.90;;;;;;5093907;28;19915;-45
2022/04/07 09:11:54;;;;;;;;;;;7.60;99.90;;;;;;5093153;28;19916;-46
2022/04/07 09:14:19;;;;;;;;;;;7.70;99.90;;;;;;5093862;28;19938;-44
2022/04/07 09:16:45;;;;;;;;;;;7.90;99.90;;;;;;5093145;28;19908;-47
2022/04/07 09:19:10;;;;;;;;;;;8.00;99.90;;;;;;5093680;28;19947;-46
2022/04/07 09:21:36;;;;;;;;;;;8.10;99.90;;;;;;5093398;28;19919;-47
2022/04/07 09:24:05;;;;;;;;;;;8.20;99.90;;;;;;5092965;28;19961;-47
2022/04/07 09:26:31;;;;;;;;;;;8.30;99.90;;;;;;5093566;28;19979;-46
2022/04/07 09:28:57;;;;;;;;;;;8.50;99.90;;;;;;5093648;28;19908;-45
2022/04/07 09:31:22;;;;;;;;;;;8.60;99.90;;;;;;5092416;28;20018;-45
2022/04/07 09:33:55;;;;;;;;;;;8.80;99.90;;;;;;5093457;28;20015;-45
2022/04/07 09:36:21;;;;;;;;;;;8.90;99.90;;;;;;5093180;28;19920;-46
2022/04/07 09:38:51;;;;;;;;;;;9.10;99.90;;;;;;5092754;28;19908;-46
2022/04/07 09:41:19;;;;;;;;;;;9.20;99.90;;;;;;5092947;28;20002;-46
2022/04/07 09:43:48;;;;;;;;;;;9.40;99.90;;;;;;5093452;28;19953;-46
2022/04/07 09:46:14;;;;;;;;;;;9.50;99.90;;;;;;5092570;28;19908;-45
2022/04/07 09:48:56;;;;;;;;;;;9.60;99.90;;;;;;5093141;28;19935;-47
2022/04/07 09:51:22;;;;;;;;;;;9.50;99.90;;;;;;5092013;28;19915;-45
2022/04/07 09:53:48;;;;;;;;;;;9.60;99.90;;;;;;5092495;28;20290;-44
2022/04/07 09:56:15;;;;;;;;;;;9.50;99.90;;;;;;5093065;28;19912;-46
2022/04/07 09:58:41;;;;;;;;;;;9.40;99.90;;;;;;5093181;28;19992;-44
2022/04/07 10:01:06;;;;;;;;;;;9.70;99.90;;;;;;5092299;28;19943;-45
2022/04/07 10:03:32;;;;;;;;;;;9.70;99.90;;;;;;5092786;28;20379;-46
2022/04/07 10:05:58;;;;;;;;;;;9.70;99.90;;;;;;5092334;28;19912;-46
2022/04/07 10:08:24;;;;;;;;;;;9.70;99.90;;;;;;5093044;28;19958;-48
2022/04/07 10:10:49;;;;;;;;;;;9.90;99.90;;;;;;5093002;28;19962;-45
2022/04/07 10:13:15;;;;;;;;;;;10.10;99.90;;;;;;5092261;28;20436;-44
2022/04/07 10:15:41;;;;;;;;;;;10.00;99.90;;;;;;5092706;28;19908;-45
2022/04/07 10:18:10;;;;;;;;;;;10.00;99.90;;;;;;5092758;28;20369;-45
2022/04/07 10:20:41;;;;;;;;;;;10.20;99.90;;;;;;5091990;28;19938;-46
2022/04/07 10:23:24;;;;;;;;;;;10.20;99.90;;;;;;5092387;28;19915;-45
2022/04/07 10:25:50;;;;;;;;;;;10.20;99.90;;;;;;5092070;28;20370;-45
2022/04/07 10:28:17;;;;;;;;;;;10.30;99.90;;;;;;5091017;28;20333;-46
2022/04/07 10:30:47;;;;;;;;;;;10.40;99.90;;;;;;5091873;28;19958;-47
2022/04/07 10:33:30;;;;;;;;;;;10.80;99.90;;;;;;5091329;28;19912;-47
2022/04/07 10:35:56;;;;;;;;;;;10.90;99.90;;;;;;5088317;28;19952;-46
2022/04/07 10:38:37;;;;;;;;;;;10.90;99.90;;;;;;5092585;28;19908;-49
2022/04/07 10:41:03;;;;;;;;;;;10.80;99.90;;;;;;5091947;28;20393;-45
2022/04/07 10:43:29;;;;;;;;;;;10.70;99.90;;;;;;5092022;28;19951;-45
2022/04/07 10:46:01;;;;;;;;;;;10.60;99.90;;;;;;5089440;28;20206;-48
2022/04/07 10:48:30;;;;;;;;;;;10.60;99.90;;;;;;5083489;28;19952;-45
2022/04/07 10:51:03;;;;;;;;;;;10.70;99.90;;;;;;5089770;28;20347;-45
2022/04/07 10:53:32;;;;;;;;;;;10.70;99.90;;;;;;5092099;28;19916;-45
2022/04/07 10:56:02;;;;;;;;;;;10.60;99.90;;;;;;5089494;28;19943;-48
2022/04/07 10:58:41;;;;;;;;;;;10.60;99.90;;;;;;5090501;28;19916;-45
2022/04/07 11:01:07;;;;;;;;;;;10.70;99.90;;;;;;5090808;28;20420;-46
2022/04/07 11:03:33;;;;;;;;;;;10.90;99.90;;;;;;5089802;28;19912;-46
2022/04/07 11:05:59;;;;;;;;;;;10.90;99.90;;;;;;5094270;28;19907;-46
2022/04/07 11:08:25;;;;;;;;;;;10.70;99.90;;;;;;5090554;28;20347;-47
2022/04/07 11:10:52;;;;;;;;;;;10.70;99.90;;;;;;5090296;28;19938;-49
2022/04/07 11:13:19;;;;;;;;;;;11.00;99.90;;;;;;5090655;28;20394;-47
2022/04/07 11:15:48;;;;;;;;;;;11.00;94.90;;;;;;5089236;28;19920;-45
2022/04/07 11:18:28;;;;;;;;;;;10.80;99.90;;;;;;5089462;28;20355;-47
2022/04/07 11:21:02;;;;;;;;;;;10.60;99.90;;;;;;5089139;28;19934;-44
2022/04/07 11:23:43;;;;;;;;;;;10.30;99.90;;;;;;5090817;28;19912;-46
2022/04/07 11:26:09;;;;;;;;;;;10.10;99.90;;;;;;5092181;28;19943;-47
2022/04/07 11:28:37;;;;;;;;;;;9.70;99.90;;;;;;5094963;28;20351;-47
2022/04/07 11:31:04;;;;;;;;;;;9.30;99.90;;;;;;5094054;28;20298;-45
2022/04/07 11:33:35;;;;;;;;;;;9.10;99.90;;;;;;5094219;28;19912;-46
2022/04/07 11:36:00;;;;;;;;;;;9.10;99.90;;;;;;5094163;28;20291;-45
2022/04/07 11:38:26;;;;;;;;;;;9.20;99.90;;;;;;5093920;28;19919;-48
2022/04/07 11:40:58;;;;;;;;;;;9.50;99.90;;;;;;5094759;28;20302;-45
2022/04/07 11:43:24;;;;;;;;;;;9.70;99.90;;;;;;5095159;28;19912;-44
2022/04/07 11:45:50;;;;;;;;;;;9.70;99.90;;;;;;5094686;28;19912;-45
2022/04/07 11:48:15;;;;;;;;;;;9.90;99.90;;;;;;5095349;28;19908;-45
2022/04/07 11:50:41;;;;;;;;;;;10.00;99.90;;;;;;5095447;28;19908;-46
2022/04/07 11:53:06;;;;;;;;;;;10.10;99.90;;;;;;5094864;28;20069;-48
2022/04/07 11:55:32;;;;;;;;;;;10.20;99.90;;;;;;5094988;28;20060;-44
2022/04/07 11:57:58;;;;;;;;;;;10.20;99.90;;;;;;5095647;28;19908;-45
2022/04/07 12:00:28;;;;;;;;;;;10.20;99.90;;;;;;5094465;28;19908;-44
2022/04/07 12:02:57;;;;;;;;;;;10.20;99.90;;;;;;5095589;28;20011;-45
2022/04/07 12:05:22;;;;;;;;;;;10.20;99.90;;;;;;5091143;28;19909;-49
2022/04/07 12:07:47;;;;;;;;;;;10.20;99.90;;;;;;5093085;28;19942;-46
2022/04/07 12:10:14;;;;;;;;;;;10.20;99.90;;;;;;5094195;28;19920;-45
2022/04/07 12:12:40;;;;;;;;;;;10.20;99.90;;;;;;5093926;28;19916;-46
2022/04/07 12:15:06;;;;;;;;;;;10.20;99.90;;;;;;5093513;28;20369;-43
2022/04/07 12:17:34;;;;;;;;;;;10.20;99.90;;;;;;5093985;28;19908;-46
2022/04/07 12:20:00;;;;;;;;;;;10.40;99.90;;;;;;5092870;28;20389;-44
2022/04/07 12:22:29;;;;;;;;;;;10.40;99.90;;;;;;5093763;28;19908;-45
2022/04/07 12:24:59;;;;;;;;;;;10.50;99.90;;;;;;5093433;28;20653;-45
2022/04/07 12:27:34;;;;;;;;;;;10.50;93.30;;;;;;5093692;28;19920;-47
2022/04/07 12:30:00;;;;;;;;;;;10.50;96.60;;;;;;5093898;28;19956;-46
2022/04/07 12:32:39;;;;;;;;;;;10.50;99.50;;;;;;5094574;28;19942;-47
2022/04/07 12:35:05;;;;;;;;;;;10.60;93.50;;;;;;5093646;28;19928;-48
2022/04/07 12:37:33;;;;;;;;;;;10.60;95.40;;;;;;5094773;28;19953;-45
2022/04/07 12:39:59;;;;;;;;;;;10.60;92.40;;;;;;5092579;28;19959;-44
2022/04/07 12:42:24;;;;;;;;;;;10.60;91.30;;;;;;5093424;28;19966;-47
2022/04/07 12:44:49;;;;;;;;;;;11.00;99.90;;;;;;5094449;28;19912;-46
2022/04/07 12:47:16;;;;;;;;;;;11.20;90.30;;;;;;5094409;28;19908;-44
2022/04/07 12:49:55;;;;;;;;;;;11.30;87.50;;;;;;5093403;28;19961;-44
2022/04/07 12:52:21;;;;;;;;;;;11.20;84.30;;;;;;5094192;28;19920;-43
2022/04/07 12:55:04;;;;;;;;;;;11.20;86.00;;;;;;5093477;28;20340;-44
2022/04/07 12:57:33;;;;;;;;;;;11.20;88.20;;;;;;5094166;28;19908;-43
2022/04/07 12:59:59;;;;;;;;;;;11.00;91.60;;;;;;5094122;28;20289;-47
2022/04/07 13:02:25;;;;;;;;;;;10.70;92.30;;;;;;5093245;28;20377;-43
2022/04/07 13:04:52;;;;;;;;;;;10.50;92.90;;;;;;5094097;28;20477;-48
2022/04/07 13:07:18;;;;;;;;;;;9.40;99.90;;;;;;5094006;28;20355;-48
2022/04/07 13:09:44;;;;;;;;;;;8.20;99.90;;;;;;5092462;28;19912;-47
2022/04/07 13:12:10;;;;;;;;;;;7.90;99.90;;;;;;5093780;28;19934;-46
2022/04/07 13:14:36;;;;;;;;;;;7.90;99.90;;;;;;5093763;28;19912;-46
2022/04/07 13:17:02;;;;;;;;;;;8.00;99.90;;;;;;5093171;28;20363;-50
2022/04/07 13:19:28;;;;;;;;;;;7.90;99.90;;;;;;5093776;28;19908;-49
2022/04/07 13:21:53;;;;;;;;;;;7.50;99.90;;;;;;5093807;28;19915;-48
2022/04/07 13:24:19;;;;;;;;;;;7.30;99.90;;;;;;5092924;28;19908;-49
2022/04/07 13:26:45;;;;;;;;;;;7.70;99.90;;;;;;5093674;28;19915;-47
2022/04/07 13:29:11;;;;;;;;;;;7.90;99.90;;;;;;5093636;28;19939;-46
2022/04/07 13:31:36;;;;;;;;;;;8.20;99.90;;;;;;5092795;28;19971;-47
2022/04/07 13:34:04;;;;;;;;;;;8.60;99.90;;;;;;5093496;28;19954;-46
2022/04/07 13:36:29;;;;;;;;;;;8.90;99.90;;;;;;5093329;28;20018;-45
2022/04/07 13:38:54;;;;;;;;;;;9.20;99.90;;;;;;5092764;28;19940;-45
2022/04/07 13:41:21;;;;;;;;;;;9.40;99.90;;;;;;5092910;28;19916;-46
2022/04/07 13:43:46;;;;;;;;;;;9.70;99.90;;;;;;5093252;28;20430;-47
2022/04/07 13:46:12;;;;;;;;;;;9.80;99.90;;;;;;5092611;28;20003;-44
2022/04/07 13:48:37;;;;;;;;;;;9.70;99.90;;;;;;5093002;28;20275;-48
2022/04/07 13:51:03;;;;;;;;;;;9.60;99.90;;;;;;5092237;28;19969;-45
2022/04/07 13:53:29;;;;;;;;;;;9.50;99.90;;;;;;5093273;28;19916;-46
2022/04/07 13:55:54;;;;;;;;;;;9.40;99.90;;;;;;5093328;28;20255;-52
2022/04/07 13:58:20;;;;;;;;;;;9.00;99.90;;;;;;5092361;28;19994;-48
2022/04/07 14:00:45;;;;;;;;;;;8.50;99.90;;;;;;5093173;28;19909;-49
2022/04/07 14:03:11;;;;;;;;;;;8.30;99.90;;;;;;5093184;28;19995;-48
2022/04/07 14:05:36;;;;;;;;;;;8.30;99.90;;;;;;5092316;28;19915;-51
2022/04/07 14:08:02;;;;;;;;;;;8.30;99.90;;;;;;5093170;28;19908;-46
2022/04/07 14:10:27;;;;;;;;;;;8.30;99.90;;;;;;5092062;28;19912;-47
2022/04/07 14:12:53;;;;;;;;;;;8.20;99.90;;;;;;5092097;28;19916;-49
2022/04/07 14:15:19;;;;;;;;;;;8.20;99.90;;;;;;5092784;28;19908;-46
2022/04/07 14:17:45;;;;;;;;;;;8.70;99.90;;;;;;5093060;28;19962;-47
2022/04/07 14:20:12;;;;;;;;;;;8.90;99.90;;;;;;5091978;28;20370;-44
2022/04/07 14:22:41;;;;;;;;;;;8.90;99.90;;;;;;5092899;28;20003;-49
2022/04/07 14:25:07;;;;;;;;;;;9.00;99.90;;;;;;5092752;28;20359;-49